Copper Cliff, Canada
Current Conditions -  °F | °C
As of 4:00 PM on Saturday 20 Dec 2014 (Local Time) from CYSB Reporting Station
Broken Clouds Broken Clouds  
Wind Chill: 18°   Ceiling: 12000
Heat Index: 18°   Visibility: 20mi
Dew Point: 14°   Wind: 3mph
Humidity: 86%   Direction: 40°NE
Pressure: 30.22"   Gusts: NA
Location:  46.47°N, 81.07°W
Report Text: CYSB 202100Z 04003KT 20SM BKN120 M08/M10 A3022 RMK AC5 SLP263
Loading
Personal Weather Stations






























Interactive Weather Map New forecast layout! Learn more

10-Day Weather Forecast

Advertisements
Track Severe Weather on mobile